sensor_id;sensor_type;location;lat;lon;timestamp;temperature;humidity
52211;DHT22;38179;52.756;6.906;2023-11-21T00:01:37;7.80;99.90
52211;DHT22;38179;52.756;6.906;2023-11-21T00:04:03;7.80;99.90
52211;DHT22;38179;52.756;6.906;2023-11-21T00:06:29;7.90;99.90
52211;DHT22;38179;52.756;6.906;2023-11-21T00:08:56;7.80;99.90
52211;DHT22;38179;52.756;6.906;2023-11-21T00:11:22;7.80;99.90
52211;DHT22;38179;52.756;6.906;2023-11-21T00:13:48;7.80;99.90
52211;DHT22;38179;52.756;6.906;2023-11-21T00:16:14;7.90;99.90
52211;DHT22;38179;52.756;6.906;2023-11-21T00:18:39;7.80;99.90
52211;DHT22;38179;52.756;6.906;2023-11-21T00:21:06;7.80;99.90
52211;DHT22;38179;52.756;6.906;2023-11-21T00:23:32;7.90;99.90
52211;DHT22;38179;52.756;6.906;2023-11-21T00:25:57;7.90;99.90
52211;DHT22;38179;52.756;6.906;2023-11-21T00:28:24;7.80;99.90
52211;DHT22;38179;52.756;6.906;2023-11-21T00:30:50;7.80;99.90
52211;DHT22;38179;52.756;6.906;2023-11-21T00:33:16;7.80;99.90
52211;DHT22;38179;52.756;6.906;2023-11-21T00:35:42;7.80;99.90
52211;DHT22;38179;52.756;6.906;2023-11-21T00:38:08;7.80;99.90
52211;DHT22;38179;52.756;6.906;2023-11-21T00:40:34;7.80;99.90
52211;DHT22;38179;52.756;6.906;2023-11-21T00:43:00;7.80;99.90
52211;DHT22;38179;52.756;6.906;2023-11-21T00:45:26;7.80;99.90
52211;DHT22;38179;52.756;6.906;2023-11-21T00:47:52;7.80;99.90
52211;DHT22;38179;52.756;6.906;2023-11-21T00:50:22;7.80;99.90
52211;DHT22;38179;52.756;6.906;2023-11-21T00:52:48;7.80;99.90
52211;DHT22;38179;52.756;6.906;2023-11-21T00:55:13;7.80;99.90
52211;DHT22;38179;52.756;6.906;2023-11-21T00:57:39;7.80;99.90
52211;DHT22;38179;52.756;6.906;2023-11-21T01:00:06;7.80;99.90
52211;DHT22;38179;52.756;6.906;2023-11-21T01:02:33;7.80;99.90
52211;DHT22;38179;52.756;6.906;2023-11-21T01:05:01;7.80;99.90
52211;DHT22;38179;52.756;6.906;2023-11-21T01:07:27;7.80;99.90
52211;DHT22;38179;52.756;6.906;2023-11-21T01:09:53;7.80;99.90
52211;DHT22;38179;52.756;6.906;2023-11-21T01:12:19;7.80;99.90
52211;DHT22;38179;52.756;6.906;2023-11-21T01:14:45;7.80;99.90
52211;DHT22;38179;52.756;6.906;2023-11-21T01:17:11;7.80;99.90
52211;DHT22;38179;52.756;6.906;2023-11-21T01:19:37;7.90;99.90
52211;DHT22;38179;52.756;6.906;2023-11-21T01:22:03;7.80;99.90
52211;DHT22;38179;52.756;6.906;2023-11-21T01:24:29;7.90;99.90
52211;DHT22;38179;52.756;6.906;2023-11-21T01:26:55;7.90;99.90
52211;DHT22;38179;52.756;6.906;2023-11-21T01:29:21;7.90;99.90
52211;DHT22;38179;52.756;6.906;2023-11-21T01:31:47;7.90;99.90
52211;DHT22;38179;52.756;6.906;2023-11-21T01:34:12;7.90;99.90
52211;DHT22;38179;52.756;6.906;2023-11-21T01:36:39;8.00;99.90
52211;DHT22;38179;52.756;6.906;2023-11-21T01:39:05;8.00;99.90
52211;DHT22;38179;52.756;6.906;2023-11-21T01:41:36;8.00;99.90
52211;DHT22;38179;52.756;6.906;2023-11-21T01:44:02;7.90;99.90
52211;DHT22;38179;52.756;6.906;2023-11-21T01:46:28;7.90;99.90
52211;DHT22;38179;52.756;6.906;2023-11-21T01:48:54;8.00;99.90
52211;DHT22;38179;52.756;6.906;2023-11-21T01:51:20;7.90;99.90
52211;DHT22;38179;52.756;6.906;2023-11-21T01:53:46;8.00;99.90
52211;DHT22;38179;52.756;6.906;2023-11-21T01:56:13;8.00;99.90
52211;DHT22;38179;52.756;6.906;2023-11-21T01:58:39;8.00;99.90
52211;DHT22;38179;52.756;6.906;2023-11-21T02:01:06;8.00;99.90
52211;DHT22;38179;52.756;6.906;2023-11-21T02:03:32;8.00;99.90
52211;DHT22;38179;52.756;6.906;2023-11-21T02:05:58;8.10;99.90
52211;DHT22;38179;52.756;6.906;2023-11-21T02:08:24;8.00;99.90
52211;DHT22;38179;52.756;6.906;2023-11-21T02:10:50;8.00;99.90
52211;DHT22;38179;52.756;6.906;2023-11-21T02:13:16;8.00;99.90
52211;DHT22;38179;52.756;6.906;2023-11-21T02:15:42;8.00;99.90
52211;DHT22;38179;52.756;6.906;2023-11-21T02:18:08;8.00;99.90
52211;DHT22;38179;52.756;6.906;2023-11-21T02:20:35;8.00;99.90
52211;DHT22;38179;52.756;6.906;2023-11-21T02:23:04;8.00;99.90
52211;DHT22;38179;52.756;6.906;2023-11-21T02:25:31;8.00;99.90
52211;DHT22;38179;52.756;6.906;2023-11-21T02:27:59;8.00;99.90
52211;DHT22;38179;52.756;6.906;2023-11-21T02:30:26;8.00;99.90
52211;DHT22;38179;52.756;6.906;2023-11-21T02:32:57;8.00;99.90
52211;DHT22;38179;52.756;6.906;2023-11-21T02:35:24;8.00;99.90
52211;DHT22;38179;52.756;6.906;2023-11-21T02:37:52;8.00;99.90
52211;DHT22;38179;52.756;6.906;2023-11-21T02:40:18;8.00;99.90
52211;DHT22;38179;52.756;6.906;2023-11-21T02:42:46;7.90;99.90
52211;DHT22;38179;52.756;6.906;2023-11-21T02:45:13;8.00;99.90
52211;DHT22;38179;52.756;6.906;2023-11-21T02:47:42;8.00;99.90
52211;DHT22;38179;52.756;6.906;2023-11-21T02:50:09;8.00;99.90
52211;DHT22;38179;52.756;6.906;2023-11-21T02:52:35;8.00;99.90
52211;DHT22;38179;52.756;6.906;2023-11-21T02:55:02;7.90;99.90
52211;DHT22;38179;52.756;6.906;2023-11-21T02:57:28;7.90;99.90
52211;DHT22;38179;52.756;6.906;2023-11-21T02:59:54;7.90;99.90
52211;DHT22;38179;52.756;6.906;2023-11-21T03:02:20;7.90;99.90
52211;DHT22;38179;52.756;6.906;2023-11-21T03:04:46;7.90;99.90
52211;DHT22;38179;52.756;6.906;2023-11-21T03:07:15;7.90;99.90
52211;DHT22;38179;52.756;6.906;2023-11-21T03:09:41;7.90;99.90
52211;DHT22;38179;52.756;6.906;2023-11-21T03:12:07;7.90;99.90
52211;DHT22;38179;52.756;6.906;2023-11-21T03:14:34;7.90;99.90
52211;DHT22;38179;52.756;6.906;2023-11-21T03:17:00;7.90;99.90
52211;DHT22;38179;52.756;6.906;2023-11-21T03:19:26;7.90;99.90
52211;DHT22;38179;52.756;6.906;2023-11-21T03:21:52;7.90;99.90
52211;DHT22;38179;52.756;6.906;2023-11-21T03:24:19;7.90;99.90
52211;DHT22;38179;52.756;6.906;2023-11-21T03:26:46;7.90;99.90
52211;DHT22;38179;52.756;6.906;2023-11-21T03:29:12;7.90;99.90
52211;DHT22;38179;52.756;6.906;2023-11-21T03:31:39;7.90;99.90
52211;DHT22;38179;52.756;6.906;2023-11-21T03:34:04;7.90;99.90
52211;DHT22;38179;52.756;6.906;2023-11-21T03:36:30;7.90;99.90
52211;DHT22;38179;52.756;6.906;2023-11-21T03:38:56;7.80;99.90
52211;DHT22;38179;52.756;6.906;2023-11-21T03:41:22;7.90;99.90
52211;DHT22;38179;52.756;6.906;2023-11-21T03:43:48;7.90;99.90
52211;DHT22;38179;52.756;6.906;2023-11-21T03:46:14;7.90;99.90
52211;DHT22;38179;52.756;6.906;2023-11-21T03:48:40;7.90;99.90
52211;DHT22;38179;52.756;6.906;2023-11-21T03:51:07;7.90;99.90
52211;DHT22;38179;52.756;6.906;2023-11-21T03:53:33;7.80;99.90
52211;DHT22;38179;52.756;6.906;2023-11-21T03:56:03;7.80;99.90
52211;DHT22;38179;52.756;6.906;2023-11-21T03:58:29;7.80;99.90
52211;DHT22;38179;52.756;6.906;2023-11-21T04:00:55;7.80;99.90
52211;DHT22;38179;52.756;6.906;2023-11-21T04:03:21;7.80;99.90
52211;DHT22;38179;52.756;6.906;2023-11-21T04:05:47;7.70;99.90
52211;DHT22;38179;52.756;6.906;2023-11-21T04:08:13;7.70;99.90
52211;DHT22;38179;52.756;6.906;2023-11-21T04:10:38;7.70;99.90
52211;DHT22;38179;52.756;6.906;2023-11-21T04:13:05;7.70;99.90
52211;DHT22;38179;52.756;6.906;2023-11-21T04:15:32;7.70;99.90
52211;DHT22;38179;52.756;6.906;2023-11-21T04:17:58;7.70;99.90
52211;DHT22;38179;52.756;6.906;2023-11-21T04:20:24;7.70;99.90
52211;DHT22;38179;52.756;6.906;2023-11-21T04:22:50;7.80;99.90
52211;DHT22;38179;52.756;6.906;2023-11-21T04:25:16;7.70;99.90
52211;DHT22;38179;52.756;6.906;2023-11-21T04:27:43;7.70;99.90
52211;DHT22;38179;52.756;6.906;2023-11-21T04:30:11;7.70;99.90
52211;DHT22;38179;52.756;6.906;2023-11-21T04:32:37;7.70;99.90
52211;DHT22;38179;52.756;6.906;2023-11-21T04:35:03;7.70;99.90
52211;DHT22;38179;52.756;6.906;2023-11-21T04:37:29;7.70;99.90
52211;DHT22;38179;52.756;6.906;2023-11-21T04:39:55;7.70;99.90
52211;DHT22;38179;52.756;6.906;2023-11-21T04:42:21;7.70;99.90
52211;DHT22;38179;52.756;6.906;2023-11-21T04:44:49;7.70;99.90
52211;DHT22;38179;52.756;6.906;2023-11-21T04:47:15;7.70;99.90
52211;DHT22;38179;52.756;6.906;2023-11-21T04:49:42;7.70;99.90
52211;DHT22;38179;52.756;6.906;2023-11-21T04:52:09;7.70;99.90
52211;DHT22;38179;52.756;6.906;2023-11-21T04:54:36;7.70;99.90
52211;DHT22;38179;52.756;6.906;2023-11-21T04:57:02;7.70;99.90
52211;DHT22;38179;52.756;6.906;2023-11-21T04:59:28;7.70;99.90
52211;DHT22;38179;52.756;6.906;2023-11-21T05:01:54;7.80;99.90
52211;DHT22;38179;52.756;6.906;2023-11-21T05:04:20;7.80;99.90
52211;DHT22;38179;52.756;6.906;2023-11-21T05:06:48;7.80;99.90
52211;DHT22;38179;52.756;6.906;2023-11-21T05:09:14;7.80;99.90
52211;DHT22;38179;52.756;6.906;2023-11-21T05:11:41;7.80;99.90
52211;DHT22;38179;52.756;6.906;2023-11-21T05:14:07;7.80;99.90
52211;DHT22;38179;52.756;6.906;2023-11-21T05:16:34;7.80;99.90
52211;DHT22;38179;52.756;6.906;2023-11-21T05:19:01;7.80;99.90
52211;DHT22;38179;52.756;6.906;2023-11-21T05:21:27;7.80;99.90
52211;DHT22;38179;52.756;6.906;2023-11-21T05:23:55;7.80;99.90
52211;DHT22;38179;52.756;6.906;2023-11-21T05:26:21;7.90;99.90
52211;DHT22;38179;52.756;6.906;2023-11-21T05:28:47;7.90;99.90
52211;DHT22;38179;52.756;6.906;2023-11-21T05:31:13;7.90;99.90
52211;DHT22;38179;52.756;6.906;2023-11-21T05:33:40;8.00;99.90
52211;DHT22;38179;52.756;6.906;2023-11-21T05:36:07;7.90;99.90
52211;DHT22;38179;52.756;6.906;2023-11-21T05:38:34;7.90;99.90
52211;DHT22;38179;52.756;6.906;2023-11-21T05:41:01;7.90;99.90
52211;DHT22;38179;52.756;6.906;2023-11-21T05:43:27;8.00;99.90
52211;DHT22;38179;52.756;6.906;2023-11-21T05:45:55;7.90;99.90
52211;DHT22;38179;52.756;6.906;2023-11-21T05:48:21;8.00;99.90
52211;DHT22;38179;52.756;6.906;2023-11-21T05:50:47;8.00;99.90
52211;DHT22;38179;52.756;6.906;2023-11-21T05:53:15;8.00;99.90
52211;DHT22;38179;52.756;6.906;2023-11-21T05:55:41;8.00;99.90
52211;DHT22;38179;52.756;6.906;2023-11-21T05:58:08;8.00;99.90
52211;DHT22;38179;52.756;6.906;2023-11-21T06:00:34;8.00;99.90
52211;DHT22;38179;52.756;6.906;2023-11-21T06:03:00;8.00;99.90
52211;DHT22;38179;52.756;6.906;2023-11-21T06:05:26;8.00;99.90
52211;DHT22;38179;52.756;6.906;2023-11-21T06:07:53;8.00;99.90
52211;DHT22;38179;52.756;6.906;2023-11-21T06:10:21;8.00;99.90
52211;DHT22;38179;52.756;6.906;2023-11-21T06:12:47;8.00;99.90
52211;DHT22;38179;52.756;6.906;2023-11-21T06:15:15;8.00;99.90
52211;DHT22;38179;52.756;6.906;2023-11-21T06:17:42;8.10;99.90
52211;DHT22;38179;52.756;6.906;2023-11-21T06:20:10;8.00;99.90
52211;DHT22;38179;52.756;6.906;2023-11-21T06:22:42;8.00;99.90
52211;DHT22;38179;52.756;6.906;2023-11-21T06:25:08;8.10;99.90
52211;DHT22;38179;52.756;6.906;2023-11-21T06:27:43;8.10;99.90
52211;DHT22;38179;52.756;6.906;2023-11-21T06:30:13;8.10;99.90
52211;DHT22;38179;52.756;6.906;2023-11-21T06:32:39;8.10;99.90
52211;DHT22;38179;52.756;6.906;2023-11-21T06:35:06;8.10;99.90
52211;DHT22;38179;52.756;6.906;2023-11-21T06:37:33;8.10;99.90
52211;DHT22;38179;52.756;6.906;2023-11-21T06:39:59;8.10;99.90
52211;DHT22;38179;52.756;6.906;2023-11-21T06:42:26;8.10;99.90
52211;DHT22;38179;52.756;6.906;2023-11-21T06:44:52;8.10;99.90
52211;DHT22;38179;52.756;6.906;2023-11-21T06:47:20;8.10;99.90
52211;DHT22;38179;52.756;6.906;2023-11-21T06:49:46;8.10;99.90
52211;DHT22;38179;52.756;6.906;2023-11-21T06:52:14;8.20;99.90
52211;DHT22;38179;52.756;6.906;2023-11-21T06:54:40;8.10;99.90
52211;DHT22;38179;52.756;6.906;2023-11-21T06:57:05;8.20;99.90
52211;DHT22;38179;52.756;6.906;2023-11-21T06:59:31;8.20;99.90
52211;DHT22;38179;52.756;6.906;2023-11-21T07:01:57;8.20;99.90
52211;DHT22;38179;52.756;6.906;2023-11-21T07:04:23;8.20;99.90
52211;DHT22;38179;52.756;6.906;2023-11-21T07:06:52;8.20;99.90
52211;DHT22;38179;52.756;6.906;2023-11-21T07:09:18;8.20;99.90
52211;DHT22;38179;52.756;6.906;2023-11-21T07:11:48;8.20;99.90
52211;DHT22;38179;52.756;6.906;2023-11-21T07:14:15;8.20;99.90
52211;DHT22;38179;52.756;6.906;2023-11-21T07:16:41;8.20;99.90
52211;DHT22;38179;52.756;6.906;2023-11-21T07:19:07;8.20;99.90
52211;DHT22;38179;52.756;6.906;2023-11-21T07:21:37;8.20;99.90
52211;DHT22;38179;52.756;6.906;2023-11-21T07:24:03;8.20;99.90
52211;DHT22;38179;52.756;6.906;2023-11-21T07:26:30;8.20;99.90
52211;DHT22;38179;52.756;6.906;2023-11-21T07:28:56;8.20;99.90
52211;DHT22;38179;52.756;6.906;2023-11-21T07:31:24;8.20;99.90
52211;DHT22;38179;52.756;6.906;2023-11-21T07:33:53;8.30;99.90
52211;DHT22;38179;52.756;6.906;2023-11-21T07:36:19;8.30;99.90
52211;DHT22;38179;52.756;6.906;2023-11-21T07:38:48;8.30;99.90
52211;DHT22;38179;52.756;6.906;2023-11-21T07:41:14;8.30;99.90
52211;DHT22;38179;52.756;6.906;2023-11-21T07:43:46;8.30;99.90
52211;DHT22;38179;52.756;6.906;2023-11-21T07:46:13;8.30;99.90
52211;DHT22;38179;52.756;6.906;2023-11-21T07:48:42;8.30;99.90
52211;DHT22;38179;52.756;6.906;2023-11-21T07:51:10;8.30;99.90
52211;DHT22;38179;52.756;6.906;2023-11-21T07:53:36;8.30;99.90
52211;DHT22;38179;52.756;6.906;2023-11-21T07:56:06;8.30;99.90
52211;DHT22;38179;52.756;6.906;2023-11-21T07:58:33;8.30;99.90
52211;DHT22;38179;52.756;6.906;2023-11-21T08:01:03;8.40;99.90
52211;DHT22;38179;52.756;6.906;2023-11-21T08:03:29;8.30;99.90
52211;DHT22;38179;52.756;6.906;2023-11-21T08:05:59;8.40;99.90
52211;DHT22;38179;52.756;6.906;2023-11-21T08:08:25;8.40;99.90
52211;DHT22;38179;52.756;6.906;2023-11-21T08:10:52;8.40;99.90
52211;DHT22;38179;52.756;6.906;2023-11-21T08:13:28;8.40;99.90
52211;DHT22;38179;52.756;6.906;2023-11-21T08:15:57;8.40;99.90
52211;DHT22;38179;52.756;6.906;2023-11-21T08:18:29;8.40;99.90
52211;DHT22;38179;52.756;6.906;2023-11-21T08:20:58;8.40;99.90
52211;DHT22;38179;52.756;6.906;2023-11-21T08:23:24;8.50;99.90
52211;DHT22;38179;52.756;6.906;2023-11-21T08:25:51;8.50;99.90
52211;DHT22;38179;52.756;6.906;2023-11-21T08:28:18;8.50;99.90
52211;DHT22;38179;52.756;6.906;2023-11-21T08:30:44;8.50;99.90
52211;DHT22;38179;52.756;6.906;2023-11-21T08:33:10;8.50;99.90
52211;DHT22;38179;52.756;6.906;2023-11-21T08:35:37;8.60;99.90
52211;DHT22;38179;52.756;6.906;2023-11-21T08:38:04;8.60;99.90
52211;DHT22;38179;52.756;6.906;2023-11-21T08:40:30;8.70;99.90
52211;DHT22;38179;52.756;6.906;2023-11-21T08:42:56;8.70;99.90
52211;DHT22;38179;52.756;6.906;2023-11-21T08:45:25;8.70;99.90
52211;DHT22;38179;52.756;6.906;2023-11-21T08:47:51;8.70;99.90
52211;DHT22;38179;52.756;6.906;2023-11-21T08:50:17;8.70;99.90
52211;DHT22;38179;52.756;6.906;2023-11-21T08:52:44;8.70;99.90
52211;DHT22;38179;52.756;6.906;2023-11-21T08:55:11;8.70;99.90
52211;DHT22;38179;52.756;6.906;2023-11-21T08:57:41;8.70;99.90
52211;DHT22;38179;52.756;6.906;2023-11-21T09:00:10;8.70;99.90
52211;DHT22;38179;52.756;6.906;2023-11-21T09:02:38;8.70;99.90
52211;DHT22;38179;52.756;6.906;2023-11-21T09:05:05;8.70;99.90
52211;DHT22;38179;52.756;6.906;2023-11-21T09:07:32;8.70;99.90
52211;DHT22;38179;52.756;6.906;2023-11-21T09:09:57;8.60;99.90
52211;DHT22;38179;52.756;6.906;2023-11-21T09:12:24;8.70;99.90
52211;DHT22;38179;52.756;6.906;2023-11-21T09:14:53;8.70;99.90
52211;DHT22;38179;52.756;6.906;2023-11-21T09:17:19;8.70;99.90
52211;DHT22;38179;52.756;6.906;2023-11-21T09:19:45;8.60;99.90
52211;DHT22;38179;52.756;6.906;2023-11-21T09:22:15;8.60;99.90
52211;DHT22;38179;52.756;6.906;2023-11-21T09:24:42;8.50;99.90
52211;DHT22;38179;52.756;6.906;2023-11-21T09:27:08;8.60;99.90
52211;DHT22;38179;52.756;6.906;2023-11-21T09:29:35;8.50;99.90
52211;DHT22;38179;52.756;6.906;2023-11-21T09:32:05;8.50;99.90
52211;DHT22;38179;52.756;6.906;2023-11-21T09:34:33;8.50;99.90
52211;DHT22;38179;52.756;6.906;2023-11-21T09:37:04;8.40;99.90
52211;DHT22;38179;52.756;6.906;2023-11-21T09:39:32;8.40;99.90
52211;DHT22;38179;52.756;6.906;2023-11-21T09:42:25;8.40;99.90
52211;DHT22;38179;52.756;6.906;2023-11-21T09:45:09;8.30;99.90
52211;DHT22;38179;52.756;6.906;2023-11-21T09:47:39;8.40;99.90
52211;DHT22;38179;52.756;6.906;2023-11-21T09:50:05;8.40;99.90
52211;DHT22;38179;52.756;6.906;2023-11-21T09:52:36;8.30;99.90
52211;DHT22;38179;52.756;6.906;2023-11-21T09:55:07;8.30;99.90
52211;DHT22;38179;52.756;6.906;2023-11-21T09:57:33;8.30;99.90
52211;DHT22;38179;52.756;6.906;2023-11-21T10:00:01;8.30;99.90
52211;DHT22;38179;52.756;6.906;2023-11-21T10:02:33;8.30;99.90
52211;DHT22;38179;52.756;6.906;2023-11-21T10:05:02;8.20;99.90
52211;DHT22;38179;52.756;6.906;2023-11-21T10:07:31;8.20;99.90
52211;DHT22;38179;52.756;6.906;2023-11-21T10:10:00;8.20;99.90
52211;DHT22;38179;52.756;6.906;2023-11-21T10:12:28;8.20;99.90
52211;DHT22;38179;52.756;6.906;2023-11-21T10:14:56;8.20;99.90
52211;DHT22;38179;52.756;6.906;2023-11-21T10:17:24;8.20;99.90
52211;DHT22;38179;52.756;6.906;2023-11-21T10:19:57;8.10;99.90
52211;DHT22;38179;52.756;6.906;2023-11-21T10:22:24;8.20;99.90
52211;DHT22;38179;52.756;6.906;2023-11-21T10:24:50;8.10;99.90
52211;DHT22;38179;52.756;6.906;2023-11-21T10:27:19;8.20;99.90
52211;DHT22;38179;52.756;6.906;2023-11-21T10:29:44;8.20;99.90
52211;DHT22;38179;52.756;6.906;2023-11-21T10:32:12;8.20;99.90
52211;DHT22;38179;52.756;6.906;2023-11-21T10:34:38;8.20;99.90
52211;DHT22;38179;52.756;6.906;2023-11-21T10:37:12;8.20;99.90
52211;DHT22;38179;52.756;6.906;2023-11-21T10:39:39;8.20;99.90
52211;DHT22;38179;52.756;6.906;2023-11-21T10:42:08;8.20;99.90
52211;DHT22;38179;52.756;6.906;2023-11-21T10:44:35;8.20;99.90
52211;DHT22;38179;52.756;6.906;2023-11-21T10:47:01;8.20;99.90
52211;DHT22;38179;52.756;6.906;2023-11-21T10:49:28;8.20;99.90
52211;DHT22;38179;52.756;6.906;2023-11-21T10:51:54;8.20;99.90
52211;DHT22;38179;52.756;6.906;2023-11-21T10:54:22;8.20;99.90
52211;DHT22;38179;52.756;6.906;2023-11-21T10:56:58;8.20;99.90
52211;DHT22;38179;52.756;6.906;2023-11-21T10:59:30;8.20;99.90
52211;DHT22;38179;52.756;6.906;2023-11-21T11:01:57;8.20;99.90
52211;DHT22;38179;52.756;6.906;2023-11-21T11:04:25;8.10;99.90
52211;DHT22;38179;52.756;6.906;2023-11-21T11:06:58;8.10;99.90
52211;DHT22;38179;52.756;6.906;2023-11-21T11:09:26;8.10;99.90
52211;DHT22;38179;52.756;6.906;2023-11-21T11:11:52;8.00;99.90
52211;DHT22;38179;52.756;6.906;2023-11-21T11:14:19;8.00;99.90
52211;DHT22;38179;52.756;6.906;2023-11-21T11:16:45;8.10;99.90
52211;DHT22;38179;52.756;6.906;2023-11-21T11:19:11;8.00;99.90
52211;DHT22;38179;52.756;6.906;2023-11-21T11:27:52;8.00;99.90
52211;DHT22;38179;52.756;6.906;2023-11-21T11:38:07;8.10;99.90
52211;DHT22;38179;52.756;6.906;2023-11-21T11:40:46;8.10;99.90
52211;DHT22;38179;52.756;6.906;2023-11-21T11:43:12;8.10;99.90
52211;DHT22;38179;52.756;6.906;2023-11-21T11:45:39;8.10;99.90
52211;DHT22;38179;52.756;6.906;2023-11-21T11:48:08;8.10;99.90
52211;DHT22;38179;52.756;6.906;2023-11-21T11:50:53;8.10;99.90
52211;DHT22;38179;52.756;6.906;2023-11-21T11:53:33;8.00;99.90
52211;DHT22;38179;52.756;6.906;2023-11-21T11:56:22;8.00;99.90
52211;DHT22;38179;52.756;6.906;2023-11-21T11:58:50;8.00;99.90
52211;DHT22;38179;52.756;6.906;2023-11-21T12:01:19;8.00;99.90
52211;DHT22;38179;52.756;6.906;2023-11-21T12:06:48;8.00;99.90
52211;DHT22;38179;52.756;6.906;2023-11-21T12:09:20;8.10;99.90
52211;DHT22;38179;52.756;6.906;2023-11-21T12:11:48;8.10;99.90
52211;DHT22;38179;52.756;6.906;2023-11-21T12:14:14;8.10;99.90
52211;DHT22;38179;52.756;6.906;2023-11-21T12:16:41;8.10;99.90
52211;DHT22;38179;52.756;6.906;2023-11-21T12:19:09;8.10;99.90
52211;DHT22;38179;52.756;6.906;2023-11-21T12:21:36;8.10;99.90
52211;DHT22;38179;52.756;6.906;2023-11-21T12:24:03;8.10;99.90
52211;DHT22;38179;52.756;6.906;2023-11-21T12:26:28;8.10;99.90
52211;DHT22;38179;52.756;6.906;2023-11-21T12:28:54;8.10;99.90
52211;DHT22;38179;52.756;6.906;2023-11-21T12:31:24;8.10;99.90
52211;DHT22;38179;52.756;6.906;2023-11-21T12:33:50;8.10;99.90
52211;DHT22;38179;52.756;6.906;2023-11-21T12:36:16;8.10;99.90
52211;DHT22;38179;52.756;6.906;2023-11-21T12:38:43;8.10;99.90
52211;DHT22;38179;52.756;6.906;2023-11-21T12:41:11;8.10;99.90
52211;DHT22;38179;52.756;6.906;2023-11-21T12:43:37;8.00;99.90
52211;DHT22;38179;52.756;6.906;2023-11-21T12:48:32;8.00;99.90
52211;DHT22;38179;52.756;6.906;2023-11-21T12:50:58;8.00;99.90
52211;DHT22;38179;52.756;6.906;2023-11-21T12:53:26;8.10;99.90
52211;DHT22;38179;52.756;6.906;2023-11-21T12:55:52;8.00;99.90
52211;DHT22;38179;52.756;6.906;2023-11-21T12:58:24;8.00;99.90
52211;DHT22;38179;52.756;6.906;2023-11-21T13:00:51;8.00;99.90
52211;DHT22;38179;52.756;6.906;2023-11-21T13:03:19;8.10;99.90
52211;DHT22;38179;52.756;6.906;2023-11-21T13:05:51;8.00;99.90
52211;DHT22;38179;52.756;6.906;2023-11-21T13:08:20;8.00;99.90
52211;DHT22;38179;52.756;6.906;2023-11-21T13:10:55;8.00;99.90
52211;DHT22;38179;52.756;6.906;2023-11-21T13:13:22;8.00;99.90
52211;DHT22;38179;52.756;6.906;2023-11-21T13:16:00;8.00;99.90
52211;DHT22;38179;52.756;6.906;2023-11-21T13:18:27;8.00;99.90
52211;DHT22;38179;52.756;6.906;2023-11-21T13:20:59;8.00;99.90
52211;DHT22;38179;52.756;6.906;2023-11-21T13:23:26;8.00;99.90
52211;DHT22;38179;52.756;6.906;2023-11-21T13:25:53;7.90;99.90
52211;DHT22;38179;52.756;6.906;2023-11-21T13:28:19;7.90;99.90
52211;DHT22;38179;52.756;6.906;2023-11-21T13:30:49;8.00;99.90
52211;DHT22;38179;52.756;6.906;2023-11-21T13:33:18;7.90;99.90
52211;DHT22;38179;52.756;6.906;2023-11-21T13:35:47;7.90;99.90
52211;DHT22;38179;52.756;6.906;2023-11-21T13:38:15;7.90;99.90
52211;DHT22;38179;52.756;6.906;2023-11-21T13:40:52;7.90;99.90
52211;DHT22;38179;52.756;6.906;2023-11-21T13:43:23;7.90;99.90
52211;DHT22;38179;52.756;6.906;2023-11-21T13:45:53;7.90;99.90
52211;DHT22;38179;52.756;6.906;2023-11-21T13:48:28;7.90;99.90
52211;DHT22;38179;52.756;6.906;2023-11-21T13:51:03;7.90;99.90
52211;DHT22;38179;52.756;6.906;2023-11-21T13:53:48;7.90;99.90
52211;DHT22;38179;52.756;6.906;2023-11-21T13:56:16;7.80;99.90
52211;DHT22;38179;52.756;6.906;2023-11-21T13:58:50;7.80;99.90
52211;DHT22;38179;52.756;6.906;2023-11-21T14:01:24;7.80;99.90
52211;DHT22;38179;52.756;6.906;2023-11-21T14:03:50;7.80;99.90
52211;DHT22;38179;52.756;6.906;2023-11-21T14:06:22;7.80;99.90
52211;DHT22;38179;52.756;6.906;2023-11-21T14:08:57;7.70;99.90
52211;DHT22;38179;52.756;6.906;2023-11-21T14:11:22;7.80;99.90
52211;DHT22;38179;52.756;6.906;2023-11-21T14:13:49;7.70;99.90
52211;DHT22;38179;52.756;6.906;2023-11-21T14:16:15;7.80;99.90
52211;DHT22;38179;52.756;6.906;2023-11-21T14:18:45;7.80;99.90
52211;DHT22;38179;52.756;6.906;2023-11-21T14:21:29;7.80;99.90
52211;DHT22;38179;52.756;6.906;2023-11-21T14:23:55;7.80;99.90
52211;DHT22;38179;52.756;6.906;2023-11-21T14:26:21;7.80;99.90
52211;DHT22;38179;52.756;6.906;2023-11-21T14:28:49;7.80;99.90
52211;DHT22;38179;52.756;6.906;2023-11-21T14:31:16;7.80;99.90
52211;DHT22;38179;52.756;6.906;2023-11-21T14:33:44;7.80;99.90
52211;DHT22;38179;52.756;6.906;2023-11-21T14:36:11;7.80;99.90
52211;DHT22;38179;52.756;6.906;2023-11-21T14:38:37;7.80;99.90
52211;DHT22;38179;52.756;6.906;2023-11-21T14:41:05;7.80;99.90
52211;DHT22;38179;52.756;6.906;2023-11-21T14:43:36;7.70;99.90
52211;DHT22;38179;52.756;6.906;2023-11-21T14:46:04;7.80;99.90
52211;DHT22;38179;52.756;6.906;2023-11-21T14:48:36;7.70;99.90
52211;DHT22;38179;52.756;6.906;2023-11-21T14:51:09;7.70;99.90
52211;DHT22;38179;52.756;6.906;2023-11-21T14:53:53;7.70;99.90
52211;DHT22;38179;52.756;6.906;2023-11-21T14:56:20;7.70;99.90
52211;DHT22;38179;52.756;6.906;2023-11-21T14:58:57;7.70;99.90
52211;DHT22;38179;52.756;6.906;2023-11-21T15:01:24;7.70;99.90
52211;DHT22;38179;52.756;6.906;2023-11-21T15:04:10;7.70;99.90
52211;DHT22;38179;52.756;6.906;2023-11-21T15:06:55;7.70;99.90
52211;DHT22;38179;52.756;6.906;2023-11-21T15:09:24;7.70;99.90
52211;DHT22;38179;52.756;6.906;2023-11-21T15:12:02;7.60;99.90
52211;DHT22;38179;52.756;6.906;2023-11-21T15:14:46;7.60;99.90
52211;DHT22;38179;52.756;6.906;2023-11-21T15:17:16;7.60;99.90
52211;DHT22;38179;52.756;6.906;2023-11-21T15:19:56;7.60;99.90
52211;DHT22;38179;52.756;6.906;2023-11-21T15:22:23;7.60;99.90
52211;DHT22;38179;52.756;6.906;2023-11-21T15:24:49;7.60;99.90
52211;DHT22;38179;52.756;6.906;2023-11-21T15:27:16;7.60;99.90
52211;DHT22;38179;52.756;6.906;2023-11-21T15:29:43;7.60;99.90
52211;DHT22;38179;52.756;6.906;2023-11-21T15:32:09;7.60;99.90
52211;DHT22;38179;52.756;6.906;2023-11-21T15:34:36;7.60;99.90
52211;DHT22;38179;52.756;6.906;2023-11-21T15:37:03;7.50;99.90
52211;DHT22;38179;52.756;6.906;2023-11-21T15:39:29;7.50;99.90
52211;DHT22;38179;52.756;6.906;2023-11-21T15:41:59;7.50;99.90
52211;DHT22;38179;52.756;6.906;2023-11-21T15:44:25;7.50;99.90
52211;DHT22;38179;52.756;6.906;2023-11-21T15:46:53;7.50;99.90
52211;DHT22;38179;52.756;6.906;2023-11-21T15:49:19;7.50;99.90
52211;DHT22;38179;52.756;6.906;2023-11-21T15:51:50;7.40;99.90
52211;DHT22;38179;52.756;6.906;2023-11-21T15:54:21;7.40;99.90
52211;DHT22;38179;52.756;6.906;2023-11-21T15:56:48;7.30;99.90
52211;DHT22;38179;52.756;6.906;2023-11-21T15:59:15;7.30;99.90
52211;DHT22;38179;52.756;6.906;2023-11-21T16:01:42;7.30;99.90
52211;DHT22;38179;52.756;6.906;2023-11-21T16:04:12;7.30;99.90
52211;DHT22;38179;52.756;6.906;2023-11-21T16:06:46;7.30;99.90
52211;DHT22;38179;52.756;6.906;2023-11-21T16:09:14;7.30;99.90